Time;durP1;ratioP1;P1;durP2;ratioP2;P2;SDS_P1;SDS_P2;PMS_P1;PMS_P2;Temp;Humidity;BMP_temperature;BMP_pressure;BME280_temperature;BME280_humidity;BME280_pressure;Samples;Min_cycle;Max_cycle;Signal;HPM_P1;HPM_P2
2023/05/26 04:43:40;;;;;;;6.20;3.50;;;;;;;17.54;100.00;100017.91;108369;1275;22307;-56
2023/05/26 04:46:10;;;;;;;7.30;3.90;;;;;;;17.54;100.00;100019.15;110070;1272;22423;-56
2023/05/26 04:48:38;;;;;;;6.70;3.40;;;;;;;17.53;100.00;100021.30;109864;1276;22391;-46
2023/05/26 04:51:07;;;;;;;4.00;2.90;;;;;;;17.55;100.00;100019.65;109854;1272;22379;-46
2023/05/26 04:53:35;;;;;;;4.50;3.30;;;;;;;17.58;100.00;100017.45;109847;1279;22382;-47
2023/05/26 04:56:05;;;;;;;7.60;3.10;;;;;;;17.62;100.00;100021.02;109892;1267;23115;-54
2023/05/26 04:58:38;;;;;;;5.30;3.40;;;;;;;17.68;100.00;100021.01;109895;1275;22367;-47
2023/05/26 05:01:06;;;;;;;5.80;3.30;;;;;;;17.74;100.00;100023.28;109886;1276;23259;-54
2023/05/26 05:04:13;;;;;;;6.50;3.30;;;;;;;17.84;100.00;100025.61;108850;1279;22725;-54
2023/05/26 05:06:47;;;;;;;7.80;3.60;;;;;;;17.88;100.00;100028.83;108410;1279;22396;-54
2023/05/26 05:09:15;;;;;;;7.00;3.10;;;;;;;17.92;100.00;100025.67;109899;1279;22240;-55
2023/05/26 05:11:42;;;;;;;4.70;3.10;;;;;;;17.97;100.00;100027.27;109430;1275;22645;-56
2023/05/26 05:14:12;;;;;;;4.90;3.20;;;;;;;18.03;100.00;100027.96;109705;1277;22436;-55
2023/05/26 05:16:41;;;;;;;7.30;3.40;;;;;;;18.10;100.00;100029.31;109108;1275;23759;-56
2023/05/26 05:19:10;;;;;;;8.30;3.60;;;;;;;18.16;100.00;100030.48;109649;1274;22380;-56
2023/05/26 05:21:44;;;;;;;4.10;2.80;;;;;;;18.24;100.00;100024.39;109571;1275;22973;-55
2023/05/26 05:24:13;;;;;;;4.60;3.40;;;;;;;18.30;100.00;100028.41;109350;1272;22198;-55
2023/05/26 05:26:42;;;;;;;5.10;3.40;;;;;;;18.35;100.00;100032.62;108846;1272;22401;-48
2023/05/26 05:29:10;;;;;;;4.60;3.10;;;;;;;18.38;100.00;100038.55;108725;1275;463571;-55
2023/05/26 05:31:42;;;;;;;7.70;2.90;;;;;;;18.40;100.00;100038.27;109392;1273;22617;-48
2023/05/26 05:34:48;;;;;;;7.10;3.60;;;;;;;18.44;100.00;100037.06;109188;1272;22801;-55
2023/05/26 05:42:19;;;;;;;5.60;3.00;;;;;;;18.68;100.00;100046.09;109282;1272;22409;-48
2023/05/26 05:52:53;;;;;;;6.20;3.60;;;;;;;18.93;100.00;100045.19;109052;1279;23927;-49
2023/05/26 05:55:46;;;;;;;9.30;3.90;;;;;;;18.99;100.00;100044.80;109680;1272;23332;-48
2023/05/26 05:58:26;;;;;;;7.60;3.30;;;;;;;19.08;100.00;100043.36;109452;1274;22563;-49
2023/05/26 06:01:44;;;;;;;10.80;4.00;;;;;;;19.21;100.00;100041.26;108648;1275;23928;-56
2023/05/26 06:04:50;;;;;;;5.90;3.50;;;;;;;19.33;100.00;100039.55;109240;1272;23265;-56
2023/05/26 06:07:21;;;;;;;5.00;3.70;;;;;;;19.41;100.00;100040.80;108548;1278;22784;-47
2023/05/26 06:09:51;;;;;;;5.20;3.40;;;;;;;19.54;100.00;100039.57;108926;1270;22250;-47
2023/05/26 06:12:20;;;;;;;5.70;3.30;;;;;;;19.68;100.00;100045.22;108418;1273;23247;-55
2023/05/26 06:14:52;;;;;;;14.80;4.20;;;;;;;19.78;100.00;100044.63;108467;1273;22633;-46
2023/05/26 06:17:26;;;;;;;8.10;4.20;;;;;;;19.87;100.00;100043.52;108434;1278;22222;-46
2023/05/26 06:20:00;;;;;;;4.80;3.30;;;;;;;20.00;100.00;100044.27;108706;1273;25342;-48
2023/05/26 06:22:36;;;;;;;7.20;3.40;;;;;;;20.10;100.00;100050.16;108723;1272;23804;-47
2023/05/26 06:25:08;;;;;;;6.10;3.20;;;;;;;20.20;100.00;100054.89;109184;1279;22427;-47
2023/05/26 06:27:40;;;;;;;9.20;3.80;;;;;;;20.30;100.00;100055.52;109425;1271;23009;-47
2023/05/26 06:30:13;;;;;;;7.00;3.60;;;;;;;20.41;100.00;100058.23;108999;1273;22230;-55
2023/05/26 06:32:50;;;;;;;4.90;3.40;;;;;;;20.51;100.00;100057.95;108297;1274;23346;-48
2023/05/26 06:35:37;;;;;;;6.30;3.70;;;;;;;20.60;100.00;100061.27;109158;1279;22591;-47
2023/05/26 06:38:38;;;;;;;8.70;3.80;;;;;;;20.69;100.00;100059.08;108199;1280;22497;-56
2023/05/26 06:42:37;;;;;;;6.30;3.80;;;;;;;20.78;100.00;100061.70;108239;1281;23133;-49
2023/05/26 06:50:28;;;;;;;7.10;3.80;;;;;;;21.00;100.00;100064.92;108843;1276;23233;-47
2023/05/26 06:53:56;;;;;;;11.50;5.20;;;;;;;21.12;100.00;100064.39;108263;1275;23077;-52
2023/05/26 06:56:51;;;;;;;14.20;6.00;;;;;;;21.15;100.00;100067.08;108441;1271;22538;-53
2023/05/26 07:00:03;;;;;;;13.00;4.90;;;;;;;21.22;100.00;100067.27;109179;1280;22527;-54
2023/05/26 07:02:36;;;;;;;16.10;7.00;;;;;;;21.25;100.00;100065.36;108975;1281;22242;-50
2023/05/26 07:05:27;;;;;;;12.20;4.60;;;;;;;21.24;100.00;100063.98;108823;1281;22528;-50
2023/05/26 07:07:55;;;;;;;10.00;3.90;;;;;;;21.25;100.00;100062.84;109421;1274;22812;-50
2023/05/26 07:10:23;;;;;;;5.10;3.80;;;;;;;21.33;100.00;100061.47;109358;1281;22527;-50
2023/05/26 07:12:51;;;;;;;8.20;4.40;;;;;;;21.43;100.00;100062.74;109319;1278;22866;-50
2023/05/26 07:15:34;;;;;;;8.20;4.60;;;;;;;21.47;99.53;100059.02;108562;1276;22531;-49
2023/05/26 07:18:51;;;;;;;7.40;4.30;;;;;;;21.47;98.60;100060.40;108442;1276;22416;-54
2023/05/26 07:22:32;;;;;;;9.10;3.90;;;;;;;21.49;97.72;100059.45;108317;1276;22722;-55
2023/05/26 07:25:26;;;;;;;6.70;3.40;;;;;;;21.57;97.15;100054.98;109395;1273;22297;-50
2023/05/26 07:27:53;;;;;;;5.50;3.30;;;;;;;21.63;95.89;100055.93;109783;1275;22282;-50
2023/05/26 07:30:22;;;;;;;6.40;3.50;;;;;;;21.69;95.77;100053.68;109662;1280;22179;-51
2023/05/26 07:33:20;;;;;;;6.50;3.50;;;;;;;21.86;95.47;100055.85;109407;1275;22523;-55
2023/05/26 07:35:48;;;;;;;5.90;3.80;;;;;;;21.98;93.62;100052.56;108731;1280;22238;-56
2023/05/26 07:38:15;;;;;;;3.60;3.20;;;;;;;22.03;93.65;100053.89;109626;1280;22395;-56
2023/05/26 07:40:43;;;;;;;7.20;3.80;;;;;;;22.14;92.78;100059.96;109209;1274;22553;-54
2023/05/26 07:43:14;;;;;;;5.50;3.40;;;;;;;22.22;90.89;100060.63;109568;1280;23245;-53
2023/05/26 07:45:42;;;;;;;5.70;3.60;;;;;;;22.25;90.63;100056.91;109295;1280;22841;-53
2023/05/26 07:48:10;;;;;;;7.30;3.50;;;;;;;22.23;90.00;100058.06;109562;1280;22427;-50
2023/05/26 07:50:40;;;;;;;7.90;3.20;;;;;;;22.20;88.71;100054.83;109639;1275;22367;-49
2023/05/26 07:53:11;;;;;;;8.90;2.80;;;;;;;22.19;89.41;100053.27;109446;1275;23291;-50
2023/05/26 07:55:40;;;;;;;9.20;3.60;;;;;;;22.26;88.93;100050.99;109050;1273;22556;-54
2023/05/26 07:58:12;;;;;;;9.80;3.50;;;;;;;22.42;88.81;100047.64;109203;1273;22514;-51
2023/05/26 08:01:20;;;;;;;4.30;3.30;;;;;;;22.61;87.51;100045.55;109121;1276;25903;-55
2023/05/26 08:04:44;;;;;;;7.00;3.50;;;;;;;22.74;85.28;100041.13;108640;1274;23060;-50
2023/05/26 08:08:30;;;;;;;4.80;3.00;;;;;;;22.79;85.22;100044.96;108997;1275;22449;-53
2023/05/26 08:12:20;;;;;;;6.30;3.10;;;;;;;22.92;83.32;100042.71;109151;1274;23210;-48
2023/05/26 08:16:00;;;;;;;5.70;3.10;;;;;;;23.04;81.75;100036.16;109299;1276;22405;-51
2023/05/26 08:18:46;;;;;;;7.40;3.40;;;;;;;23.13;82.41;100033.70;109463;1272;22634;-50
2023/05/26 08:21:44;;;;;;;6.30;3.60;;;;;;;23.21;81.69;100030.23;109380;1274;22855;-54
2023/05/26 08:24:27;;;;;;;8.10;3.20;;;;;;;23.29;80.40;100026.02;109076;1275;22399;-54
2023/05/26 08:27:01;;;;;;;8.40;3.40;;;;;;;23.41;79.79;100023.60;109310;1275;22717;-55
2023/05/26 08:29:29;;;;;;;6.60;3.80;;;;;;;23.39;79.55;100016.90;109239;1276;22505;-50
2023/05/26 08:32:03;;;;;;;5.20;3.70;;;;;;;23.34;79.20;100022.52;109043;1276;22625;-50
2023/05/26 08:34:32;;;;;;;9.20;3.70;;;;;;;23.33;79.42;100020.45;109326;1275;22273;-55
2023/05/26 08:36:59;;;;;;;3.70;3.30;;;;;;;23.36;79.42;100018.68;109556;1276;23189;-55
2023/05/26 08:39:27;;;;;;;11.90;4.70;;;;;;;23.42;79.10;100019.25;109022;1281;23263;-54
2023/05/26 08:41:56;;;;;;;4.70;3.90;;;;;;;23.44;79.38;100018.92;109028;1274;22824;-51
2023/05/26 08:44:24;;;;;;;8.10;3.80;;;;;;;23.41;79.04;100014.46;109003;1278;23140;-50
2023/05/26 08:46:55;;;;;;;4.60;3.70;;;;;;;23.32;80.47;100010.54;109251;1278;23139;-51
2023/05/26 08:49:23;;;;;;;8.10;4.20;;;;;;;23.23;81.11;100007.31;109326;1275;23012;-50
2023/05/26 08:51:58;;;;;;;8.50;4.20;;;;;;;23.16;81.82;100002.75;109207;1278;23285;-54
2023/05/26 08:54:26;;;;;;;5.30;4.20;;;;;;;23.14;82.96;100001.97;109192;1275;22552;-47
2023/05/26 09:00:44;;;;;;;7.70;4.50;;;;;;;23.16;84.07;100001.48;108921;1275;23761;-56
2023/05/26 09:03:24;;;;;;;7.50;3.80;;;;;;;23.13;83.43;99993.86;109242;1273;22895;-55
2023/05/26 09:15:01;;;;;;;3.80;3.20;;;;;;;23.06;82.94;99995.48;109196;1273;22547;-54
2023/05/26 09:18:12;;;;;;;5.50;3.40;;;;;;;22.87;82.52;99989.23;108877;1281;24336;-47
2023/05/26 09:20:58;;;;;;;4.60;3.40;;;;;;;22.73;82.93;99989.26;109495;1279;23146;-55
2023/05/26 09:23:57;;;;;;;6.30;3.60;;;;;;;22.68;83.82;99982.46;109028;1273;22230;-49
2023/05/26 09:26:34;;;;;;;6.60;3.70;;;;;;;22.65;83.56;99976.38;109313;1276;22586;-54
2023/05/26 09:29:11;;;;;;;11.60;3.40;;;;;;;22.68;83.43;99972.66;109447;1275;22487;-55
2023/05/26 09:31:46;;;;;;;6.80;3.60;;;;;;;22.74;83.12;99967.53;108956;1277;22784;-49
2023/05/26 09:34:15;;;;;;;7.60;3.40;;;;;;;22.81;83.05;99964.28;109329;1278;22556;-55
2023/05/26 09:36:43;;;;;;;5.70;3.60;;;;;;;22.85;83.12;99960.18;109607;1279;22644;-55
2023/05/26 09:39:12;;;;;;;10.40;3.50;;;;;;;22.84;83.62;99956.31;109479;1280;23070;-50
2023/05/26 09:41:45;;;;;;;4.10;3.40;;;;;;;22.82;84.48;99959.40;109572;1281;22583;-49
2023/05/26 09:44:18;;;;;;;8.90;3.70;;;;;;;22.77;84.76;99967.52;109580;1278;23077;-55
2023/05/26 09:46:46;;;;;;;4.60;3.20;;;;;;;22.77;85.67;99965.02;108991;1281;22540;-54
2023/05/26 09:49:17;;;;;;;5.30;2.80;;;;;;;22.79;85.40;99961.74;109158;1280;23316;-51
2023/05/26 09:51:48;;;;;;;4.90;2.80;;;;;;;22.89;85.19;99957.67;109377;1281;23249;-49
2023/05/26 09:54:38;;;;;;;7.80;3.40;;;;;;;23.07;83.10;99954.69;109441;1274;22391;-56
2023/05/26 09:57:13;;;;;;;5.60;3.10;;;;;;;23.21;82.91;99952.28;109420;1278;22223;-49
2023/05/26 09:59:45;;;;;;;6.00;3.00;;;;;;;23.30;82.35;99949.09;109559;1279;22348;-52
2023/05/26 10:02:16;;;;;;;5.60;3.10;;;;;;;23.27;82.61;99950.54;109564;1280;22474;-51
2023/05/26 10:04:44;;;;;;;8.60;3.70;;;;;;;23.15;83.10;99950.15;108462;1276;24194;-51
2023/05/26 10:07:12;;;;;;;5.80;3.10;;;;;;;23.02;83.56;99948.59;109713;1281;23108;-51
2023/05/26 10:09:40;;;;;;;4.60;2.70;;;;;;;22.92;82.50;99953.02;109670;1275;22997;-47
2023/05/26 10:12:07;;;;;;;3.70;2.50;;;;;;;22.83;82.30;99949.61;109490;1277;22420;-48
2023/05/26 10:14:38;;;;;;;5.90;2.80;;;;;;;22.73;81.76;99955.84;109215;1276;23245;-48
2023/05/26 10:17:06;;;;;;;8.60;3.10;;;;;;;22.64;81.97;99960.09;109663;1280;23778;-50
2023/05/26 10:19:34;;;;;;;3.80;3.10;;;;;;;22.58;82.26;99960.45;109547;1280;22177;-51
2023/05/26 10:22:04;;;;;;;4.60;2.70;;;;;;;22.53;82.30;99955.92;109695;1279;22165;-50
2023/05/26 10:24:38;;;;;;;4.20;2.90;;;;;;;22.51;82.57;99949.61;109500;1280;22409;-53
2023/05/26 10:27:06;;;;;;;6.80;2.90;;;;;;;22.57;82.88;99950.72;109620;1280;22942;-56
2023/05/26 10:29:47;;;;;;;4.60;2.80;;;;;;;22.63;82.38;99951.08;109587;1275;22361;-48
2023/05/26 10:32:40;;;;;;;7.60;3.80;;;;;;;22.69;82.38;99941.14;109409;1279;23349;-49
2023/05/26 10:35:27;;;;;;;5.70;3.20;;;;;;;22.85;83.43;99935.13;109387;1279;22384;-50
2023/05/26 10:38:01;;;;;;;4.80;2.80;;;;;;;23.12;81.93;99929.82;108937;1281;22470;-55
2023/05/26 10:40:45;;;;;;;7.50;3.00;;;;;;;23.55;79.53;99927.69;109615;1280;22920;-48
2023/05/26 10:43:13;;;;;;;10.00;2.90;;;;;;;23.96;78.39;99922.92;109775;1281;22278;-51
2023/05/26 10:45:55;;;;;;;4.80;2.50;;;;;;;24.37;75.94;99920.04;108833;1274;22525;-49
2023/05/26 10:48:37;;;;;;;7.30;3.80;;;;;;;24.71;73.03;99918.92;109032;1279;22558;-49
2023/05/26 10:51:08;;;;;;;3.60;2.40;;;;;;;24.79;71.69;99914.35;109791;1279;22391;-48
2023/05/26 10:53:41;;;;;;;4.80;2.70;;;;;;;24.82;70.69;99910.96;109767;1280;22352;-54
2023/05/26 10:56:11;;;;;;;8.50;2.70;;;;;;;24.96;68.68;99905.89;109796;1279;22798;-54
2023/05/26 11:01:42;;;;;;;4.20;2.30;;;;;;;25.61;65.80;99902.48;106608;1304;545925;-55
2023/05/26 11:04:10;;;;;;;5.10;2.60;;;;;;;25.79;65.88;99909.34;108692;1288;23074;-54
2023/05/26 11:06:51;;;;;;;4.00;2.20;;;;;;;26.04;63.69;99913.28;108956;1288;22752;-54
2023/05/26 11:09:22;;;;;;;3.60;1.90;;;;;;;26.33;62.18;99906.73;109009;1288;22524;-53
2023/05/26 11:11:54;;;;;;;2.50;2.10;;;;;;;26.67;59.80;99908.60;109076;1288;22495;-47
2023/05/26 11:14:25;;;;;;;;;;;;;;;26.96;58.47;99904.13;108987;1286;118728;-52
2023/05/26 11:16:58;;;;;;;5.00;2.20;;;;;;;27.11;56.96;99903.79;109223;1286;22466;-54
2023/05/26 11:19:33;;;;;;;6.00;2.10;;;;;;;27.15;56.31;99902.27;109479;1277;22435;-56
2023/05/26 11:22:03;;;;;;;4.80;2.40;;;;;;;27.15;56.54;99905.25;109532;1282;22411;-55
2023/05/26 11:24:31;;;;;;;3.80;2.20;;;;;;;27.23;56.19;99907.36;109429;1283;22338;-48
2023/05/26 11:27:01;;;;;;;4.40;2.50;;;;;;;27.13;55.83;99911.30;109468;1283;23122;-47
2023/05/26 11:29:29;;;;;;;2.80;1.90;;;;;;;26.92;55.71;99919.66;109477;1278;22499;-53
2023/05/26 11:31:56;;;;;;;3.50;2.00;;;;;;;26.74;55.40;99926.40;109543;1283;22481;-47
2023/05/26 11:34:25;;;;;;;5.80;2.10;;;;;;;26.58;55.28;99932.91;109466;1266;22662;-55
2023/05/26 11:36:53;;;;;;;4.80;2.10;;;;;;;26.40;55.22;99928.23;109494;1283;22288;-54
2023/05/26 11:39:21;;;;;;;2.50;1.80;;;;;;;26.17;55.16;99931.80;109616;1282;22914;-47
2023/05/26 11:41:49;;;;;;;5.70;2.00;;;;;;;25.98;55.30;99935.29;109608;1282;22415;-56
2023/05/26 11:44:17;;;;;;;3.10;1.70;;;;;;;25.86;56.13;99944.34;109620;1282;23032;-47
2023/05/26 11:46:46;;;;;;;6.40;2.20;;;;;;;25.81;57.59;99954.89;109689;1283;22389;-55
2023/05/26 11:49:16;;;;;;;5.70;2.50;;;;;;;25.77;57.94;99967.65;109598;1284;22513;-56
2023/05/26 11:51:45;;;;;;;5.90;2.30;;;;;;;25.68;56.98;99970.55;109491;1283;23334;-55
2023/05/26 11:54:13;;;;;;;10.40;2.70;;;;;;;25.43;56.31;99989.21;109702;1284;22446;-54
2023/05/26 11:56:43;;;;;;;5.70;2.60;;;;;;;24.71;57.60;100053.95;109859;1280;22504;-48
2023/05/26 11:59:18;;;;;;;4.80;2.40;;;;;;;23.87;59.81;100079.83;109923;1279;22227;-48
2023/05/26 12:01:46;;;;;;;8.80;2.80;;;;;;;23.15;62.07;100080.86;109895;1281;22296;-47
2023/05/26 12:04:13;;;;;;;9.10;2.90;;;;;;;22.52;64.78;100078.23;109831;1281;22289;-47
2023/05/26 12:06:42;;;;;;;11.30;2.50;;;;;;;21.92;67.18;100073.10;109900;1281;22206;-56
2023/05/26 12:09:11;;;;;;;4.80;2.50;;;;;;;21.45;69.03;100055.39;108497;1281;22302;-54
2023/05/26 12:11:42;;;;;;;4.10;2.70;;;;;;;21.01;71.94;100061.71;109850;1281;22761;-53
2023/05/26 12:14:10;;;;;;;3.40;2.40;;;;;;;20.71;74.46;100062.71;109871;1281;22217;-46
2023/05/26 12:16:45;;;;;;;3.60;2.20;;;;;;;20.50;76.63;100061.03;109862;1281;22339;-53
2023/05/26 12:19:13;;;;;;;7.60;2.90;;;;;;;20.30;79.15;100059.78;109827;1282;23050;-47
2023/05/26 12:21:46;;;;;;;7.40;3.70;;;;;;;20.14;81.44;100054.25;109756;1281;22287;-54
